Time;durP1;ratioP1;P1;durP2;ratioP2;P2;SDS_P1;SDS_P2;PMS_P1;PMS_P2;Temp;Humidity;BMP_temperature;BMP_pressure;BME280_temperature;BME280_humidity;BME280_pressure;Samples;Min_cycle;Max_cycle;Signal;HPM_P1;HPM_P2
2022/04/11 00:01:28;;;;;;;4.07;2.30;;;7.40;58.30;;;;;;5103763;28;20039;-71
2022/04/11 00:03:54;;;;;;;3.85;2.40;;;7.30;58.30;;;;;;5082170;28;20068;-71
2022/04/11 00:06:19;;;;;;;3.20;1.98;;;7.30;58.50;;;;;;5100489;28;20015;-70
2022/04/11 00:08:45;;;;;;;4.20;2.05;;;7.30;58.70;;;;;;5096959;28;20363;-70
2022/04/11 00:11:10;;;;;;;4.00;2.05;;;7.20;58.90;;;;;;5081143;28;20027;-72
2022/04/11 00:13:36;;;;;;;3.17;2.30;;;7.20;59.10;;;;;;5083126;28;20016;-73
2022/04/11 00:16:02;;;;;;;3.53;2.13;;;7.20;59.20;;;;;;5096665;28;20158;-72
2022/04/11 00:18:27;;;;;;;3.72;2.30;;;7.20;59.20;;;;;;5082676;28;20493;-73
2022/04/11 00:20:53;;;;;;;3.60;2.10;;;7.20;59.20;;;;;;5099799;28;20047;-72
2022/04/11 00:23:19;;;;;;;4.43;2.15;;;7.20;59.30;;;;;;5084992;28;20024;-72
2022/04/11 00:25:44;;;;;;;4.97;2.28;;;7.20;59.30;;;;;;5099898;28;20097;-72
2022/04/11 00:28:10;;;;;;;3.17;2.10;;;7.10;59.30;;;;;;5098077;28;20038;-71
2022/04/11 00:30:35;;;;;;;4.03;2.05;;;7.10;59.40;;;;;;5100274;28;20481;-71
2022/04/11 00:33:01;;;;;;;4.60;2.20;;;7.10;59.40;;;;;;5100244;28;20053;-70
2022/04/11 00:35:27;;;;;;;4.07;2.10;;;7.20;59.40;;;;;;5094497;28;21524;-69
2022/04/11 00:37:52;;;;;;;3.90;2.25;;;7.20;59.30;;;;;;5101514;28;20031;-69
2022/04/11 00:40:19;;;;;;;3.65;2.10;;;7.20;59.20;;;;;;5103182;28;20024;-69
2022/04/11 00:42:48;;;;;;;3.30;2.17;;;7.20;59.80;;;;;;5088684;28;20039;-69
2022/04/11 00:45:14;;;;;;;4.15;2.08;;;7.20;59.10;;;;;;5101722;28;20045;-70
2022/04/11 00:47:39;;;;;;;3.70;2.40;;;7.30;59.00;;;;;;5086533;28;20423;-70
2022/04/11 00:50:08;;;;;;;4.38;2.13;;;7.30;59.00;;;;;;5105199;28;20066;-70
2022/04/11 00:52:37;;;;;;;3.60;2.17;;;7.30;58.90;;;;;;5107866;28;20035;-70
2022/04/11 00:55:07;;;;;;;4.70;2.22;;;7.30;58.90;;;;;;5105215;28;20034;-70
2022/04/11 00:57:33;;;;;;;4.20;2.38;;;7.30;58.80;;;;;;5085116;28;20089;-70
2022/04/11 00:59:59;;;;;;;2.97;2.20;;;7.30;58.70;;;;;;5097328;28;20028;-71
2022/04/11 01:02:26;;;;;;;3.78;2.22;;;7.30;58.70;;;;;;5108203;28;20032;-70
2022/04/11 01:04:51;;;;;;;3.47;2.30;;;7.40;58.70;;;;;;5111856;28;20470;-71
2022/04/11 01:07:19;;;;;;;4.10;2.30;;;7.40;58.70;;;;;;5097395;28;20064;-70
2022/04/11 01:09:44;;;;;;;5.07;2.20;;;7.40;58.70;;;;;;5103343;28;20521;-70
2022/04/11 01:12:11;;;;;;;4.18;2.15;;;7.40;58.70;;;;;;5109043;27;20032;-70
2022/04/11 01:14:37;;;;;;;3.60;2.42;;;7.40;58.60;;;;;;5112320;28;20027;-70
2022/04/11 01:17:03;;;;;;;4.15;2.55;;;7.40;58.70;;;;;;5104838;28;20039;-71
2022/04/11 01:19:28;;;;;;;4.10;2.10;;;7.40;58.60;;;;;;5112477;27;20063;-71
2022/04/11 01:21:54;;;;;;;2.75;2.00;;;7.40;58.60;;;;;;5103801;27;20038;-71
2022/04/11 01:24:20;;;;;;;4.25;2.30;;;7.50;58.60;;;;;;5106037;27;20024;-71
2022/04/11 01:26:47;;;;;;;2.40;2.00;;;7.50;58.50;;;;;;5105194;27;20023;-70
2022/04/11 01:29:15;;;;;;;3.00;2.10;;;7.50;58.50;;;;;;5103706;28;20034;-70
2022/04/11 01:31:41;;;;;;;3.35;2.22;;;7.50;58.40;;;;;;5089458;28;20058;-70
2022/04/11 01:34:06;;;;;;;3.35;1.90;;;7.50;58.30;;;;;;5085578;28;20477;-71
2022/04/11 01:36:32;;;;;;;4.15;2.70;;;7.50;58.20;;;;;;5102199;27;20027;-71
2022/04/11 01:38:57;;;;;;;2.75;2.17;;;7.50;58.20;;;;;;5085450;28;20020;-73
2022/04/11 01:41:23;;;;;;;3.58;2.30;;;7.50;58.20;;;;;;5107531;27;20023;-73
2022/04/11 01:43:48;;;;;;;3.53;2.40;;;7.50;58.10;;;;;;5106077;28;20563;-73
2022/04/11 01:46:14;;;;;;;4.57;2.35;;;7.50;58.10;;;;;;5103690;28;20142;-73
2022/04/11 01:48:40;;;;;;;4.07;2.50;;;7.50;58.10;;;;;;5087256;28;20115;-72
2022/04/11 01:51:05;;;;;;;3.38;2.25;;;7.50;58.10;;;;;;5102930;28;20402;-73
2022/04/11 01:53:31;;;;;;;4.30;2.70;;;7.50;58.00;;;;;;5099584;28;20619;-70
2022/04/11 01:55:57;;;;;;;4.07;2.80;;;7.50;57.90;;;;;;5109264;28;20031;-69
2022/04/11 01:58:22;;;;;;;5.57;2.47;;;7.50;57.90;;;;;;5105501;28;20102;-70
2022/04/11 02:00:48;;;;;;;3.45;2.40;;;7.50;57.90;;;;;;5102023;28;20543;-70
2022/04/11 02:03:13;;;;;;;5.55;2.92;;;7.50;57.90;;;;;;5102926;28;20103;-72
2022/04/11 02:05:40;;;;;;;3.75;2.65;;;7.50;58.00;;;;;;5103146;28;20034;-72
2022/04/11 02:08:07;;;;;;;3.40;2.40;;;7.40;58.10;;;;;;5101946;28;20031;-71
2022/04/11 02:10:35;;;;;;;5.47;2.50;;;7.40;58.20;;;;;;5102441;28;20039;-71
2022/04/11 02:13:01;;;;;;;4.38;2.67;;;7.30;58.20;;;;;;5106803;28;20023;-72
2022/04/11 02:15:26;;;;;;;4.22;2.75;;;7.30;58.90;;;;;;5085158;28;20028;-70
2022/04/11 02:17:52;;;;;;;4.07;2.72;;;7.30;58.40;;;;;;5102984;28;20029;-71
2022/04/11 02:20:18;;;;;;;4.65;2.85;;;7.30;58.50;;;;;;5103732;28;20024;-70
2022/04/11 02:22:48;;;;;;;4.55;2.83;;;7.20;58.50;;;;;;5084951;28;20032;-71
2022/04/11 02:25:16;;;;;;;5.38;3.08;;;7.30;58.50;;;;;;5104677;28;20536;-70
2022/04/11 02:27:42;;;;;;;4.03;2.78;;;7.30;58.50;;;;;;5098257;28;20024;-71
2022/04/11 02:30:09;;;;;;;5.13;3.03;;;7.30;58.50;;;;;;5101644;28;20031;-71
2022/04/11 02:32:34;;;;;;;3.13;2.47;;;7.20;58.50;;;;;;5099310;28;20023;-69
2022/04/11 02:35:00;;;;;;;4.65;3.10;;;7.20;58.50;;;;;;5100454;28;20026;-68
2022/04/11 02:37:25;;;;;;;5.15;2.97;;;7.20;58.40;;;;;;5101745;28;20118;-68
2022/04/11 02:39:51;;;;;;;4.13;2.70;;;7.20;58.40;;;;;;5102770;28;20074;-69
2022/04/11 02:42:24;;;;;;;5.68;3.05;;;7.20;58.40;;;;;;5096090;28;20038;-69
2022/04/11 02:44:50;;;;;;;7.05;3.08;;;7.20;58.40;;;;;;5084324;28;20358;-70
2022/04/11 02:47:16;;;;;;;5.28;3.50;;;7.20;58.40;;;;;;5102052;28;20026;-69
2022/04/11 02:49:41;;;;;;;5.50;3.40;;;7.20;58.40;;;;;;5105732;28;23560;-69
2022/04/11 02:52:07;;;;;;;4.90;3.13;;;7.20;58.40;;;;;;5081102;28;20082;-69
2022/04/11 02:54:32;;;;;;;4.97;3.20;;;7.10;58.40;;;;;;5097948;28;20525;-70
2022/04/11 02:56:58;;;;;;;4.80;3.25;;;7.10;58.50;;;;;;5099500;28;20382;-69
2022/04/11 02:59:23;;;;;;;4.40;3.08;;;7.10;58.70;;;;;;5102546;28;20036;-67
2022/04/11 03:01:49;;;;;;;5.82;2.92;;;7.00;58.70;;;;;;5099993;28;20057;-69
2022/04/11 03:04:16;;;;;;;5.55;3.00;;;7.00;58.80;;;;;;5103409;28;20362;-69
2022/04/11 03:06:41;;;;;;;4.45;2.83;;;7.00;58.80;;;;;;5097150;28;20074;-68
2022/04/11 03:09:08;;;;;;;4.80;3.30;;;7.00;58.90;;;;;;5097672;28;20028;-71
2022/04/11 03:11:34;;;;;;;4.30;3.00;;;7.00;58.90;;;;;;5080605;28;20558;-71
2022/04/11 03:14:00;;;;;;;7.60;4.40;;;7.00;58.80;;;;;;5099800;28;20583;-71
2022/04/11 03:16:25;;;;;;;9.35;5.05;;;7.00;58.90;;;;;;5102172;28;20036;-72
2022/04/11 03:18:51;;;;;;;6.07;3.70;;;7.00;58.90;;;;;;5101498;28;20093;-71
2022/04/11 03:21:16;;;;;;;5.93;3.78;;;6.90;58.90;;;;;;5101726;28;20020;-70
2022/04/11 03:23:42;;;;;;;5.18;3.30;;;6.90;59.00;;;;;;5101243;28;20032;-70
2022/04/11 03:26:08;;;;;;;3.55;2.70;;;6.90;59.10;;;;;;5101249;28;20023;-71
2022/04/11 03:28:33;;;;;;;5.93;3.08;;;6.90;59.20;;;;;;5080801;28;20638;-71
2022/04/11 03:30:59;;;;;;;3.85;3.05;;;6.80;59.10;;;;;;5101189;28;20034;-69
2022/04/11 03:33:25;;;;;;;5.13;3.30;;;6.80;59.10;;;;;;5094314;28;20028;-71
2022/04/11 03:35:51;;;;;;;5.43;3.67;;;6.80;59.10;;;;;;5083280;28;20030;-72
2022/04/11 03:38:17;;;;;;;5.85;3.40;;;6.80;59.20;;;;;;5100452;28;20064;-72
2022/04/11 03:40:42;;;;;;;4.90;3.55;;;6.80;59.20;;;;;;5101002;28;20076;-72
2022/04/11 03:43:08;;;;;;;6.43;3.50;;;6.80;59.30;;;;;;5091610;28;20027;-72
2022/04/11 03:45:33;;;;;;;5.80;3.55;;;6.80;59.20;;;;;;5102032;28;20031;-69
2022/04/11 03:47:59;;;;;;;4.45;3.58;;;6.80;59.30;;;;;;5098628;28;20047;-71
2022/04/11 03:50:24;;;;;;;6.05;3.60;;;6.80;59.30;;;;;;5092321;28;20044;-72
2022/04/11 03:52:50;;;;;;;4.60;3.35;;;6.80;59.30;;;;;;5082185;28;20494;-71
2022/04/11 03:55:16;;;;;;;5.35;3.55;;;6.80;59.40;;;;;;5101438;28;20109;-72
2022/04/11 03:57:41;;;;;;;5.25;3.80;;;6.70;59.40;;;;;;5100819;28;20053;-71
2022/04/11 04:00:07;;;;;;;8.70;4.40;;;6.70;59.40;;;;;;5099097;28;20482;-71
2022/04/11 04:02:33;;;;;;;6.57;4.18;;;6.70;59.40;;;;;;5099372;28;20028;-71
2022/04/11 04:04:58;;;;;;;4.32;3.25;;;6.70;59.50;;;;;;5084420;28;20491;-71
2022/04/11 04:07:24;;;;;;;4.72;3.67;;;6.70;59.50;;;;;;5080008;28;20377;-69
2022/04/11 04:09:49;;;;;;;4.68;3.35;;;6.70;59.50;;;;;;5082424;28;20021;-71
2022/04/11 04:12:22;;;;;;;5.75;4.05;;;6.70;59.50;;;;;;5101751;28;20113;-69
2022/04/11 04:14:48;;;;;;;6.00;3.45;;;6.70;59.50;;;;;;5092042;28;20030;-70
2022/04/11 04:17:14;;;;;;;5.03;3.78;;;6.70;59.50;;;;;;5103732;28;20028;-71
2022/04/11 04:19:40;;;;;;;4.03;3.40;;;6.70;59.60;;;;;;5101318;28;20040;-71
2022/04/11 04:22:05;;;;;;;5.30;3.72;;;6.70;59.60;;;;;;5098201;28;20114;-70
2022/04/11 04:24:33;;;;;;;6.40;3.78;;;6.60;59.50;;;;;;5100420;28;20026;-70
2022/04/11 04:26:58;;;;;;;5.07;3.97;;;6.60;59.60;;;;;;5099792;28;20052;-72
2022/04/11 04:29:24;;;;;;;4.50;3.92;;;6.60;59.70;;;;;;5098936;28;20052;-71
2022/04/11 04:31:49;;;;;;;5.05;3.67;;;6.60;59.70;;;;;;5085310;28;20031;-71
2022/04/11 04:34:15;;;;;;;6.45;3.67;;;6.60;59.80;;;;;;5099040;28;20088;-71
2022/04/11 04:36:41;;;;;;;5.40;3.92;;;6.60;59.70;;;;;;5096623;28;20513;-72
2022/04/11 04:39:07;;;;;;;5.70;3.88;;;6.60;59.70;;;;;;5100195;28;20031;-71
2022/04/11 04:41:32;;;;;;;4.40;3.40;;;6.60;59.70;;;;;;5099695;28;21422;-71
2022/04/11 04:43:58;;;;;;;7.05;4.00;;;6.60;59.70;;;;;;5097770;28;20024;-71
2022/04/11 04:46:23;;;;;;;4.07;3.60;;;6.70;59.80;;;;;;5105819;28;20114;-70
2022/04/11 04:48:49;;;;;;;5.35;4.25;;;6.70;59.80;;;;;;5095158;28;20024;-72
2022/04/11 04:51:18;;;;;;;5.55;4.05;;;6.70;59.80;;;;;;5097103;28;20788;-71
2022/04/11 04:53:43;;;;;;;6.18;4.57;;;6.70;59.70;;;;;;5098988;28;20020;-72
2022/04/11 04:56:09;;;;;;;5.15;4.03;;;6.70;59.70;;;;;;5082229;28;20020;-72
2022/04/11 04:58:34;;;;;;;6.30;4.43;;;6.80;59.70;;;;;;5101012;28;20127;-72
2022/04/11 05:01:00;;;;;;;5.47;4.32;;;6.80;59.60;;;;;;5101785;28;20107;-72
2022/04/11 05:03:26;;;;;;;5.32;3.78;;;6.80;59.50;;;;;;5102224;28;20043;-72
2022/04/11 05:05:52;;;;;;;5.45;4.05;;;6.80;59.50;;;;;;5098866;28;20020;-72
2022/04/11 05:08:17;;;;;;;5.43;4.28;;;6.80;59.50;;;;;;5082137;28;20038;-70
2022/04/11 05:10:43;;;;;;;6.40;4.18;;;6.80;59.60;;;;;;5094477;28;20016;-72
2022/04/11 05:13:09;;;;;;;4.22;3.50;;;6.90;59.60;;;;;;5098184;28;20069;-71
2022/04/11 05:15:34;;;;;;;5.88;4.10;;;6.90;59.60;;;;;;5079439;28;20031;-72
2022/04/11 05:18:00;;;;;;;6.85;3.97;;;6.90;59.60;;;;;;5098577;28;20032;-71
2022/04/11 05:20:25;;;;;;;6.57;4.10;;;6.90;59.50;;;;;;5081849;28;20024;-72
2022/04/11 05:22:51;;;;;;;5.53;3.78;;;6.90;59.40;;;;;;5081282;28;20024;-72
2022/04/11 05:25:16;;;;;;;6.13;3.78;;;6.90;59.40;;;;;;5084068;28;20398;-73
2022/04/11 05:27:42;;;;;;;5.38;4.10;;;6.90;59.40;;;;;;5098040;28;20646;-71
2022/04/11 05:30:08;;;;;;;6.35;4.05;;;7.00;59.40;;;;;;5097529;28;20020;-71
2022/04/11 05:32:33;;;;;;;4.03;3.15;;;7.00;59.30;;;;;;5100626;28;20042;-71
2022/04/11 05:35:00;;;;;;;6.55;4.45;;;7.00;59.20;;;;;;5095441;28;20028;-70
2022/04/11 05:37:25;;;;;;;5.82;4.35;;;7.00;59.20;;;;;;5101812;28;20063;-71
2022/04/11 05:39:51;;;;;;;5.60;4.28;;;7.10;59.20;;;;;;5080006;28;20094;-71
2022/04/11 05:42:16;;;;;;;8.23;5.68;;;7.10;59.10;;;;;;5098099;28;20036;-70
2022/04/11 05:44:42;;;;;;;7.30;4.88;;;7.10;59.00;;;;;;5094252;28;20032;-70
2022/04/11 05:47:07;;;;;;;6.43;4.68;;;7.10;59.00;;;;;;5097999;28;20032;-71
2022/04/11 05:49:33;;;;;;;7.03;4.90;;;7.20;59.00;;;;;;5085296;28;20024;-73
2022/04/11 05:51:59;;;;;;;4.82;3.95;;;7.20;59.00;;;;;;5089460;28;20503;-71
2022/04/11 05:54:25;;;;;;;6.43;4.82;;;7.20;59.00;;;;;;5084228;28;20020;-71
2022/04/11 05:56:52;;;;;;;6.95;4.80;;;7.20;59.00;;;;;;5085935;28;20012;-71
2022/04/11 05:59:18;;;;;;;7.15;4.35;;;7.20;58.90;;;;;;5101066;28;20034;-71
2022/04/11 06:01:43;;;;;;;7.10;5.75;;;7.30;58.90;;;;;;5085644;28;20020;-71
2022/04/11 06:04:09;;;;;;;5.40;4.30;;;7.30;58.80;;;;;;5086727;28;20024;-71
2022/04/11 06:06:35;;;;;;;8.55;5.20;;;7.30;58.80;;;;;;5103944;28;20038;-71
2022/04/11 06:09:02;;;;;;;7.15;5.10;;;7.30;58.80;;;;;;5104563;28;20031;-72
2022/04/11 06:11:28;;;;;;;5.13;4.40;;;7.30;58.90;;;;;;5104033;28;20027;-70
2022/04/11 06:13:54;;;;;;;6.15;4.88;;;7.40;58.80;;;;;;5112531;28;20058;-71
2022/04/11 06:16:19;;;;;;;5.22;3.92;;;7.40;58.70;;;;;;5093705;28;20070;-70
2022/04/11 06:18:45;;;;;;;5.68;4.57;;;7.50;58.60;;;;;;5113132;28;20107;-71
2022/04/11 06:21:10;;;;;;;5.72;4.50;;;7.70;58.40;;;;;;5097180;27;20026;-72
2022/04/11 06:23:36;;;;;;;6.65;5.00;;;7.90;58.10;;;;;;5104987;28;20024;-70
2022/04/11 06:26:01;;;;;;;6.35;4.63;;;8.10;57.60;;;;;;5093334;28;20363;-70
2022/04/11 06:28:27;;;;;;;5.82;4.65;;;8.30;57.20;;;;;;5093783;28;20046;-71
2022/04/11 06:30:52;;;;;;;8.05;4.90;;;9.20;56.10;;;;;;5112241;28;20061;-71
2022/04/11 06:33:18;;;;;;;6.07;4.43;;;9.30;55.10;;;;;;5085823;28;20108;-71
2022/04/11 06:35:44;;;;;;;6.13;4.03;;;9.40;54.70;;;;;;5090575;28;20500;-70
2022/04/11 06:38:09;;;;;;;7.32;4.93;;;9.70;54.40;;;;;;5084902;28;20032;-69
2022/04/11 06:40:35;;;;;;;7.50;4.07;;;10.00;53.90;;;;;;5101209;28;20028;-70
2022/04/11 06:43:00;;;;;;;5.70;4.20;;;10.80;53.30;;;;;;5098655;28;20115;-70
2022/04/11 06:45:26;;;;;;;5.75;3.70;;;12.30;51.20;;;;;;5105621;28;20385;-70
2022/04/11 06:47:52;;;;;;;7.57;5.70;;;13.80;48.60;;;;;;5094793;28;20132;-70
2022/04/11 06:50:17;;;;;;;6.93;4.43;;;14.60;46.00;;;;;;5101470;28;20059;-72
2022/04/11 06:52:43;;;;;;;6.00;3.88;;;15.60;44.70;;;;;;5085988;28;20436;-71
2022/04/11 06:55:08;;;;;;;6.88;5.05;;;16.50;43.10;;;;;;5103845;28;20631;-71
2022/04/11 06:57:34;;;;;;;6.43;4.65;;;17.00;41.50;;;;;;5102336;28;20043;-70
2022/04/11 07:00:01;;;;;;;7.00;4.55;;;17.70;40.70;;;;;;5101605;28;20080;-71
2022/04/11 07:02:27;;;;;;;6.65;4.63;;;18.10;39.70;;;;;;5083294;28;20028;-71
2022/04/11 07:04:52;;;;;;;5.65;4.10;;;18.40;39.10;;;;;;5104966;28;20020;-70
2022/04/11 07:07:19;;;;;;;5.28;4.35;;;18.70;38.40;;;;;;5098648;28;20035;-70
2022/04/11 07:09:45;;;;;;;7.65;4.30;;;19.00;37.40;;;;;;5102951;28;20061;-70
2022/04/11 07:12:11;;;;;;;6.38;4.68;;;18.90;37.60;;;;;;5101742;28;20412;-70
2022/04/11 07:14:36;;;;;;;4.50;3.33;;;18.90;36.80;;;;;;5106367;28;20027;-70
2022/04/11 07:17:02;;;;;;;6.78;3.75;;;19.40;36.80;;;;;;5109866;28;20544;-70
2022/04/11 07:19:28;;;;;;;6.60;4.07;;;19.70;36.00;;;;;;5103837;28;20024;-70
2022/04/11 07:21:53;;;;;;;6.93;4.20;;;19.80;35.70;;;;;;5092787;27;20028;-70
2022/04/11 07:24:19;;;;;;;5.60;4.57;;;20.00;35.40;;;;;;5104809;27;20083;-70
2022/04/11 07:26:44;;;;;;;5.63;3.65;;;19.70;34.40;;;;;;5104016;28;20019;-71
2022/04/11 07:29:10;;;;;;;4.45;3.40;;;19.90;35.00;;;;;;5103391;27;20013;-69
2022/04/11 07:31:36;;;;;;;6.30;4.28;;;20.20;34.90;;;;;;5109825;28;20848;-70
2022/04/11 07:34:01;;;;;;;5.88;3.50;;;20.00;34.30;;;;;;5108737;28;20030;-70
2022/04/11 07:36:30;;;;;;;6.68;3.85;;;20.60;34.80;;;;;;5107356;28;20443;-70
2022/04/11 07:38:57;;;;;;;6.30;4.60;;;21.00;34.40;;;;;;5100650;28;20043;-70
2022/04/11 07:41:23;;;;;;;6.93;4.50;;;20.80;33.70;;;;;;5108353;28;20019;-70
2022/04/11 07:43:50;;;;;;;6.28;4.15;;;21.00;33.50;;;;;;5101619;28;20012;-71
2022/04/11 07:46:15;;;;;;;6.47;4.45;;;21.20;33.20;;;;;;5104227;28;20024;-70
2022/04/11 07:48:41;;;;;;;4.78;3.60;;;21.20;32.90;;;;;;5108513;28;20469;-70
2022/04/11 07:51:06;;;;;;;6.85;4.15;;;21.40;33.90;;;;;;5101644;28;20070;-70
2022/04/11 07:53:32;;;;;;;7.32;4.60;;;21.40;33.30;;;;;;5108306;27;20023;-71
2022/04/11 07:55:57;;;;;;;5.53;4.07;;;21.60;32.90;;;;;;5105383;28;20065;-71
2022/04/11 07:58:23;;;;;;;5.15;3.83;;;21.60;32.50;;;;;;5107936;28;20084;-70
2022/04/11 08:00:51;;;;;;;5.20;4.07;;;21.80;32.60;;;;;;5094343;28;20497;-70
2022/04/11 08:03:17;;;;;;;5.57;4.40;;;21.90;32.20;;;;;;5101655;28;20023;-71
2022/04/11 08:05:43;;;;;;;5.18;4.30;;;22.10;32.10;;;;;;5091368;28;20397;-70
2022/04/11 08:08:08;;;;;;;6.93;4.60;;;22.20;31.90;;;;;;5109215;27;20045;-70
2022/04/11 08:10:34;;;;;;;5.55;4.18;;;22.30;31.80;;;;;;5103933;27;20027;-71
2022/04/11 08:13:00;;;;;;;5.75;3.60;;;22.10;32.40;;;;;;5106457;27;20042;-71
2022/04/11 08:15:28;;;;;;;3.63;3.15;;;21.90;31.60;;;;;;5101342;28;20608;-70
2022/04/11 08:17:55;;;;;;;4.68;3.70;;;21.30;32.50;;;;;;5101345;28;20035;-70
2022/04/11 08:20:21;;;;;;;7.30;4.32;;;21.00;32.90;;;;;;5100754;28;20390;-69
2022/04/11 08:22:46;;;;;;;6.72;3.83;;;21.00;32.90;;;;;;5103033;28;20680;-69
2022/04/11 08:25:12;;;;;;;5.25;3.50;;;21.00;33.10;;;;;;5092810;28;20016;-69
2022/04/11 08:27:38;;;;;;;5.85;3.75;;;20.80;33.20;;;;;;5092621;27;20023;-69
2022/04/11 08:30:04;;;;;;;5.45;4.40;;;20.50;33.20;;;;;;5102313;28;20046;-69
2022/04/11 08:32:43;;;;;;;7.60;4.38;;;20.30;33.00;;;;;;5100526;27;20028;-69
2022/04/11 08:35:10;;;;;;;5.28;4.40;;;19.90;33.60;;;;;;5097715;28;20027;-69
2022/04/11 08:37:37;;;;;;;4.70;3.42;;;19.40;34.60;;;;;;5086176;28;20027;-69
2022/04/11 08:40:06;;;;;;;7.60;4.50;;;19.50;35.10;;;;;;5103974;28;20119;-69
2022/04/11 08:42:31;;;;;;;6.82;4.18;;;19.60;35.00;;;;;;5085246;28;20509;-69
2022/04/11 08:44:59;;;;;;;5.13;4.00;;;19.20;35.10;;;;;;5098112;28;20020;-69
2022/04/11 08:47:25;;;;;;;6.10;4.50;;;19.00;35.70;;;;;;5104382;28;20498;-69
2022/04/11 08:49:53;;;;;;;5.55;4.05;;;18.80;36.20;;;;;;5104078;28;20032;-68
2022/04/11 08:52:20;;;;;;;6.05;4.00;;;18.80;36.80;;;;;;5098213;28;20030;-70
2022/04/11 08:54:46;;;;;;;6.10;4.10;;;19.00;36.80;;;;;;5097217;28;20016;-69
2022/04/11 08:57:11;;;;;;;5.40;3.80;;;18.60;37.10;;;;;;5103192;28;20027;-69
2022/04/11 08:59:37;;;;;;;5.35;4.10;;;18.10;38.30;;;;;;5083677;28;20481;-69
2022/04/11 09:02:10;;;;;;;5.53;3.70;;;17.60;39.00;;;;;;5085833;28;20036;-69
2022/04/11 09:04:56;;;;;;;4.85;3.53;;;16.60;40.90;;;;;;5101698;28;20059;-68
2022/04/11 09:07:23;;;;;;;8.25;5.00;;;15.80;42.00;;;;;;5099335;28;20035;-69
2022/04/11 09:09:49;;;;;;;7.47;4.80;;;15.30;42.70;;;;;;5085517;28;20024;-69
2022/04/11 09:12:17;;;;;;;5.93;4.28;;;14.70;43.70;;;;;;5092971;28;20190;-69
2022/04/11 09:14:43;;;;;;;6.07;3.83;;;14.40;44.80;;;;;;5103174;28;20085;-69
2022/04/11 09:17:09;;;;;;;6.28;4.15;;;14.30;45.40;;;;;;5105014;28;20024;-69
2022/04/11 09:19:36;;;;;;;7.30;4.93;;;14.10;45.40;;;;;;5102157;28;20416;-69
2022/04/11 09:22:03;;;;;;;5.93;4.70;;;14.00;45.60;;;;;;5104178;28;20113;-69
2022/04/11 09:24:30;;;;;;;5.20;4.05;;;14.00;45.50;;;;;;5089222;28;20037;-69
2022/04/11 09:26:56;;;;;;;6.85;3.65;;;14.00;45.80;;;;;;5109832;27;20030;-69
2022/04/11 09:29:26;;;;;;;7.07;3.97;;;14.00;45.30;;;;;;5105114;27;20374;-69
2022/04/11 09:31:53;;;;;;;5.00;3.25;;;13.90;44.20;;;;;;5110219;27;20422;-69
2022/04/11 09:34:25;;;;;;;4.70;3.28;;;13.90;44.80;;;;;;5086844;28;20028;-69
2022/04/11 09:36:51;;;;;;;;;;;13.90;44.80;;;;;;5104626;27;20024;-69
2022/04/11 09:39:29;;;;;;;4.25;2.92;;;13.90;44.40;;;;;;5090159;28;20302;-69
2022/04/11 09:41:55;;;;;;;4.72;3.47;;;14.00;44.60;;;;;;5103266;28;20036;-69
2022/04/11 09:44:28;;;;;;;4.90;3.53;;;14.00;45.00;;;;;;5106334;28;20020;-69
2022/04/11 09:46:59;;;;;;;6.68;3.85;;;14.00;45.40;;;;;;5106176;28;20012;-68
2022/04/11 09:49:25;;;;;;;6.35;4.35;;;14.00;45.50;;;;;;5102944;28;20026;-68
2022/04/11 09:52:13;;;;;;;5.70;3.83;;;14.00;45.20;;;;;;5088146;28;20044;-68
2022/04/11 09:54:45;;;;;;;6.25;3.72;;;13.90;45.90;;;;;;5105104;28;20085;-68
2022/04/11 09:57:12;;;;;;;4.70;3.40;;;14.10;45.80;;;;;;5107948;27;20028;-69
2022/04/11 09:59:41;;;;;;;6.90;4.28;;;14.10;45.40;;;;;;5091300;28;20031;-68
2022/04/11 10:02:10;;;;;;;6.57;3.95;;;14.10;45.50;;;;;;5103698;28;20068;-69
2022/04/11 10:04:36;;;;;;;6.10;3.15;;;14.10;45.70;;;;;;5103673;28;20416;-68
2022/04/11 10:07:02;;;;;;;4.20;2.85;;;14.10;45.60;;;;;;5100159;28;20024;-68
2022/04/11 10:09:27;;;;;;;3.08;2.30;;;14.20;45.00;;;;;;5096376;28;20034;-69
2022/04/11 10:11:54;;;;;;;4.40;2.35;;;14.30;43.40;;;;;;5101345;28;20032;-68
2022/04/11 10:14:23;;;;;;;3.38;2.03;;;14.30;43.10;;;;;;5102071;28;20099;-68
2022/04/11 10:16:52;;;;;;;4.93;2.95;;;14.40;43.00;;;;;;5101495;28;20054;-67
2022/04/11 10:19:26;;;;;;;4.60;2.22;;;14.40;41.90;;;;;;5106427;28;20107;-67
2022/04/11 10:21:55;;;;;;;4.05;2.33;;;14.40;42.20;;;;;;5098379;28;20029;-67
2022/04/11 10:24:46;;;;;;;2.95;2.05;;;14.40;41.70;;;;;;5079929;28;20433;-69
2022/04/11 10:27:23;;;;;;;6.32;2.55;;;14.50;41.80;;;;;;5103552;27;20504;-66
2022/04/11 10:29:51;;;;;;;5.47;2.45;;;14.50;41.60;;;;;;5100371;28;24145;-69
2022/04/11 10:32:21;;;;;;;5.07;2.38;;;14.50;40.50;;;;;;5111160;27;20393;-69
2022/04/11 10:35:05;;;;;;;5.53;3.17;;;14.50;40.90;;;;;;5088032;28;20048;-68
2022/04/11 10:37:39;;;;;;;4.70;3.08;;;14.40;40.40;;;;;;5107753;27;20023;-66
2022/04/11 10:40:17;;;;;;;5.88;2.78;;;14.30;41.60;;;;;;5103691;27;20026;-69
2022/04/11 10:43:05;;;;;;;5.45;2.83;;;14.40;42.50;;;;;;5084928;28;20496;-67
2022/04/11 10:45:36;;;;;;;5.07;3.10;;;14.50;42.00;;;;;;5109808;27;20083;-67
2022/04/11 10:48:05;;;;;;;6.40;3.53;;;14.50;41.50;;;;;;5108819;27;20016;-68
2022/04/11 10:50:41;;;;;;;4.38;2.90;;;14.60;41.30;;;;;;5111047;27;20011;-66
2022/04/11 10:53:09;;;;;;;3.45;2.20;;;14.70;41.40;;;;;;5103524;27;20105;-67
2022/04/11 10:55:36;;;;;;;5.20;2.80;;;14.90;41.50;;;;;;5110763;28;20084;-68
2022/04/11 10:58:02;;;;;;;5.70;2.90;;;15.00;41.00;;;;;;5107621;27;20086;-68
2022/04/11 11:00:34;;;;;;;4.28;3.00;;;15.00;40.30;;;;;;5114364;27;20072;-68
2022/04/11 11:03:06;;;;;;;4.32;3.20;;;15.10;40.60;;;;;;5112849;27;20031;-68
2022/04/11 11:05:39;;;;;;;5.93;3.58;;;15.10;41.30;;;;;;5101539;28;20019;-67
2022/04/11 11:08:10;;;;;;;4.72;2.90;;;15.10;40.90;;;;;;5108101;27;20458;-69
2022/04/11 11:10:59;;;;;;;5.85;3.58;;;15.00;41.60;;;;;;5108623;28;20039;-67
2022/04/11 11:13:33;;;;;;;6.68;3.70;;;15.10;41.60;;;;;;5102191;28;20398;-69
2022/04/11 11:16:18;;;;;;;5.18;3.53;;;15.20;40.50;;;;;;5099128;28;20027;-68
2022/04/11 11:18:50;;;;;;;4.95;3.38;;;15.40;40.30;;;;;;5098270;28;20070;-67
2022/04/11 11:21:17;;;;;;;5.65;3.63;;;15.30;40.00;;;;;;5101071;28;20047;-67
2022/04/11 11:24:10;;;;;;;5.88;4.20;;;15.30;40.20;;;;;;5080494;28;20039;-68
2022/04/11 11:26:48;;;;;;;6.07;3.90;;;15.20;39.00;;;;;;5104891;28;20027;-68
2022/04/11 11:29:21;;;;;;;6.55;3.65;;;15.20;39.20;;;;;;5101632;28;20352;-68
2022/04/11 11:31:49;;;;;;;5.43;3.45;;;15.10;38.80;;;;;;5103121;28;20431;-68
2022/04/11 11:34:16;;;;;;;4.78;3.08;;;15.10;39.20;;;;;;5096066;28;20462;-68
2022/04/11 11:36:43;;;;;;;5.30;3.40;;;15.30;39.90;;;;;;5101265;27;20424;-68
2022/04/11 11:39:16;;;;;;;7.15;4.03;;;15.30;40.40;;;;;;5099949;27;20552;-68
2022/04/11 11:41:46;;;;;;;5.82;3.08;;;15.40;40.80;;;;;;5085706;27;20035;-68
2022/04/11 11:44:12;;;;;;;5.80;3.90;;;15.60;40.90;;;;;;5096894;27;20090;-69
2022/04/11 11:47:02;;;;;;;6.82;4.38;;;15.50;39.80;;;;;;5100129;27;20076;-68
2022/04/11 11:49:36;;;;;;;5.68;3.75;;;15.60;40.20;;;;;;5096748;28;20022;-68
2022/04/11 11:52:02;;;;;;;6.45;4.22;;;15.60;40.40;;;;;;5091519;28;20059;-68
2022/04/11 11:54:36;;;;;;;6.35;3.97;;;15.50;40.00;;;;;;5102151;28;20127;-67
2022/04/11 11:57:03;;;;;;;6.10;3.83;;;15.50;40.70;;;;;;5091867;28;20042;-68
2022/04/11 11:59:28;;;;;;;4.38;3.03;;;15.60;40.20;;;;;;5091386;28;20403;-69
2022/04/11 12:04:39;;;;;;;5.47;3.95;;;15.80;39.40;;;;;;5099500;28;20051;-68
2022/04/11 12:07:06;;;;;;;6.28;4.20;;;15.80;39.30;;;;;;5102103;28;20108;-69
2022/04/11 12:09:35;;;;;;;6.80;3.70;;;15.70;39.20;;;;;;5102142;28;20420;-69
2022/04/11 12:12:03;;;;;;;5.57;3.70;;;15.70;39.30;;;;;;5100699;28;20103;-69
2022/04/11 12:14:28;;;;;;;5.55;3.80;;;15.70;39.20;;;;;;5100349;28;20053;-68
2022/04/11 12:17:00;;;;;;;5.97;3.45;;;15.70;38.40;;;;;;5102865;28;20046;-67
2022/04/11 12:19:37;;;;;;;5.82;3.60;;;15.70;38.90;;;;;;5089160;28;20078;-68
2022/04/11 12:22:14;;;;;;;7.25;4.35;;;15.80;38.70;;;;;;5105587;28;20028;-67
2022/04/11 12:24:40;;;;;;;5.82;3.50;;;15.90;38.60;;;;;;5099453;28;20514;-68
2022/04/11 12:27:12;;;;;;;6.10;4.10;;;16.00;38.50;;;;;;5107996;27;20050;-67
2022/04/11 12:29:40;;;;;;;6.10;3.85;;;15.90;37.50;;;;;;5107411;27;20023;-68
2022/04/11 12:32:14;;;;;;;6.05;4.05;;;15.90;37.70;;;;;;5099530;28;20024;-68
2022/04/11 12:34:45;;;;;;;6.13;3.88;;;15.90;37.80;;;;;;5100395;28;20473;-68
2022/04/11 12:37:12;;;;;;;6.35;3.75;;;16.00;38.50;;;;;;5101083;28;20024;-69
2022/04/11 12:39:56;;;;;;;6.90;4.13;;;16.00;37.40;;;;;;5104802;28;20553;-67
2022/04/11 12:42:24;;;;;;;5.88;3.30;;;16.00;37.10;;;;;;5104199;28;20110;-67
2022/04/11 12:45:04;;;;;;;5.75;3.92;;;16.10;37.70;;;;;;5107312;28;20022;-68
2022/04/11 12:47:30;;;;;;;5.53;3.03;;;16.10;36.80;;;;;;5104100;28;20021;-67
2022/04/11 12:49:57;;;;;;;6.22;3.20;;;16.20;37.10;;;;;;5090712;28;20093;-68
2022/04/11 12:52:28;;;;;;;4.38;3.00;;;16.30;36.10;;;;;;5102450;28;20024;-68
2022/04/11 12:55:00;;;;;;;4.93;3.15;;;16.40;36.60;;;;;;5096270;28;20031;-69
2022/04/11 12:57:32;;;;;;;6.00;3.40;;;16.70;36.60;;;;;;5080830;28;20039;-70